Terminal Aerodrome Forecast
Issued by NWS Greer, SC

Home | Current Version | Previous Version | Text Only | Print | Product List | Glossary On
Versions: 1 2 3 4 5 6 7 8 9 10 11 12 13 14 15
000
FTUS42 KGSP 301421 AAC
TAFGSP
TAF AMD
KGSP 301421Z 3014/3112 16003KT P6SM SCT018 SCT250
      TEMPO 3014/3016 BKN018
     FM301900 17008KT P6SM SCT040
     FM310900 00000KT P6SM BKN030
     FM311100 00000KT 6SM BR BKN016=

USA.gov is the U.S. government's official web portal to all federal, state and local government web resources and services.